Time;durP1;ratioP1;P1;durP2;ratioP2;P2;SDS_P1;SDS_P2;PMS_P1;PMS_P2;Temp;Humidity;BMP_temperature;BMP_pressure;BME280_temperature;BME280_humidity;BME280_pressure;Samples;Min_cycle;Max_cycle;Signal;HPM_P1;HPM_P2
2022/01/20 00:00:21;;;;;;;0.30;0.10;;;3.20;99.90;;;;;;5088468;28;20492;-88
2022/01/20 00:02:55;;;;;;;0.30;0.20;;;3.20;99.90;;;;;;5087992;28;20459;-88
2022/01/20 00:05:52;;;;;;;0.30;0.10;;;3.20;99.90;;;;;;5089464;28;20427;-87
2022/01/20 00:08:30;;;;;;;0.30;0.10;;;3.10;99.90;;;;;;5089685;28;20859;-88
2022/01/20 00:27:48;;;;;;;0.30;0.10;;;3.10;99.90;;;;;;5082320;28;20504;-88
2022/01/20 00:33:03;;;;;;;0.30;0.20;;;3.00;99.90;;;;;;5084104;28;20450;-87
2022/01/20 00:37:14;;;;;;;0.30;0.10;;;3.00;99.90;;;;;;5088980;28;20455;-88
2022/01/20 00:38:16;;;;;;;0.30;0.20;;;3.00;99.90;;;;;;5088420;28;20513;-88
2022/01/20 00:40:43;;;;;;;0.30;0.10;;;3.00;99.90;;;;;;5086736;28;20455;-88
2022/01/20 00:43:10;;;;;;;0.40;0.40;;;3.00;99.90;;;;;;5092607;28;20439;-88
2022/01/20 00:45:39;;;;;;;0.60;0.47;;;3.00;99.90;;;;;;5091703;28;20527;-88
2022/01/20 00:48:06;;;;;;;0.30;0.10;;;2.90;99.90;;;;;;5092513;28;20992;-88
2022/01/20 00:50:35;;;;;;;2.00;1.03;;;2.90;99.90;;;;;;5092294;28;20451;-88
2022/01/20 00:53:02;;;;;;;0.30;0.10;;;3.00;99.90;;;;;;5091412;28;20458;-88
2022/01/20 00:55:29;;;;;;;0.30;0.10;;;2.90;99.90;;;;;;5092363;28;20980;-88
2022/01/20 00:57:56;;;;;;;0.30;0.10;;;3.00;99.90;;;;;;5091851;28;20968;-88
2022/01/20 01:00:23;;;;;;;0.30;0.10;;;3.00;99.90;;;;;;5091415;28;20455;-88
2022/01/20 01:02:51;;;;;;;0.30;0.10;;;3.00;99.90;;;;;;5092445;28;20501;-88
2022/01/20 01:05:18;;;;;;;0.30;0.10;;;3.00;99.90;;;;;;5091750;28;20492;-88
2022/01/20 01:07:46;;;;;;;0.30;0.10;;;3.00;99.90;;;;;;5090632;28;20485;-88
2022/01/20 01:10:15;;;;;;;0.30;0.10;;;3.10;99.90;;;;;;5089162;28;20470;-88
2022/01/20 01:12:48;;;;;;;0.30;0.20;;;3.00;99.90;;;;;;5088867;28;20461;-88
2022/01/20 01:15:20;;;;;;;0.30;0.10;;;3.00;99.90;;;;;;5091716;28;20450;-88
2022/01/20 01:20:46;;;;;;;0.40;0.37;;;3.00;99.90;;;;;;5090802;28;20461;-88
2022/01/20 01:23:13;;;;;;;0.30;0.20;;;3.00;99.90;;;;;;5087132;28;20458;-88
2022/01/20 01:25:41;;;;;;;0.30;0.10;;;3.00;99.90;;;;;;5087359;28;20479;-88
2022/01/20 01:28:08;;;;;;;0.30;0.10;;;2.90;99.90;;;;;;5090969;28;20493;-89
2022/01/20 01:30:58;;;;;;;0.47;0.47;;;2.90;99.90;;;;;;5090010;28;20459;-89
2022/01/20 01:33:26;;;;;;;0.30;0.17;;;2.90;99.90;;;;;;5088927;28;20455;-88
2022/01/20 01:35:57;;;;;;;0.30;0.20;;;3.00;99.90;;;;;;5089727;28;20443;-87
2022/01/20 01:38:35;;;;;;;0.30;0.10;;;3.10;99.90;;;;;;5089555;28;20435;-88
2022/01/20 01:41:03;;;;;;;0.30;0.10;;;3.00;99.90;;;;;;5089399;28;20443;-88
2022/01/20 01:43:31;;;;;;;0.53;0.47;;;2.90;99.90;;;;;;5089116;28;20921;-89
2022/01/20 01:46:00;;;;;;;0.30;0.10;;;2.90;99.90;;;;;;5091116;28;20439;-88
2022/01/20 01:48:28;;;;;;;0.30;0.20;;;2.90;99.90;;;;;;5114843;28;20474;-89
2022/01/20 01:50:56;;;;;;;0.30;0.10;;;3.00;99.90;;;;;;5107273;28;20445;-88
2022/01/20 01:53:23;;;;;;;0.30;0.10;;;3.00;99.90;;;;;;5108690;28;20463;-88
2022/01/20 01:55:51;;;;;;;0.30;0.10;;;3.00;99.90;;;;;;5097434;28;20473;-89
2022/01/20 01:58:18;;;;;;;0.30;0.10;;;3.00;99.90;;;;;;5090134;28;20492;-88
2022/01/20 02:00:45;;;;;;;0.30;0.10;;;3.00;99.90;;;;;;5090406;28;20466;-88
2022/01/20 02:03:14;;;;;;;0.30;0.10;;;3.10;99.90;;;;;;5090440;28;20986;-88
2022/01/20 02:05:54;;;;;;;0.40;0.30;;;3.00;99.90;;;;;;5085397;28;20471;-89
2022/01/20 02:08:36;;;;;;;0.30;0.20;;;2.90;99.90;;;;;;5088491;28;20510;-88
2022/01/20 02:19:18;;;;;;;0.33;0.27;;;2.90;99.90;;;;;;5088859;28;20537;-88
2022/01/20 02:21:49;;;;;;;0.80;0.47;;;2.90;99.90;;;;;;5088110;28;20470;-89
2022/01/20 02:24:16;;;;;;;0.30;0.10;;;2.90;99.90;;;;;;5089460;28;20450;-87
2022/01/20 02:26:43;;;;;;;0.30;0.10;;;2.80;99.90;;;;;;5087563;28;20500;-88
2022/01/20 02:29:10;;;;;;;0.30;0.10;;;2.90;99.90;;;;;;5087866;28;20474;-88
2022/01/20 02:31:37;;;;;;;0.30;0.10;;;2.80;99.90;;;;;;5088565;28;20462;-88
2022/01/20 02:34:04;;;;;;;0.30;0.10;;;2.80;99.90;;;;;;5090357;28;20445;-88
2022/01/20 02:36:32;;;;;;;0.30;0.20;;;2.80;99.90;;;;;;5090507;28;20933;-88
2022/01/20 02:39:07;;;;;;;0.30;0.10;;;2.80;99.90;;;;;;5089515;28;20465;-88
2022/01/20 02:47:12;;;;;;;0.30;0.10;;;2.70;99.90;;;;;;5088022;28;20502;-89
2022/01/20 02:49:39;;;;;;;0.30;0.10;;;2.80;99.90;;;;;;5088689;28;20494;-89
2022/01/20 02:52:07;;;;;;;1.37;1.03;;;2.80;99.90;;;;;;5088429;28;20450;-89
2022/01/20 02:54:36;;;;;;;0.30;0.10;;;2.80;99.90;;;;;;5087057;28;20561;-90
2022/01/20 02:57:05;;;;;;;0.30;0.20;;;2.90;99.90;;;;;;5087930;28;20512;-89
2022/01/20 02:59:34;;;;;;;0.30;0.13;;;2.90;99.90;;;;;;5087806;28;20462;-89
2022/01/20 03:02:01;;;;;;;0.93;0.93;;;2.90;99.90;;;;;;5088163;28;20533;-89
2022/01/20 03:04:30;;;;;;;0.30;0.10;;;2.90;99.90;;;;;;5088584;28;20476;-89
2022/01/20 03:06:57;;;;;;;1.97;1.80;;;2.90;99.90;;;;;;5088835;28;20463;-89
2022/01/20 03:09:24;;;;;;;0.30;0.13;;;2.90;99.90;;;;;;5088227;28;20534;-88
2022/01/20 03:11:53;;;;;;;0.40;0.30;;;2.90;99.90;;;;;;5083944;28;20523;-89
2022/01/20 03:14:20;;;;;;;0.30;0.20;;;2.90;99.90;;;;;;5087978;28;20471;-90
2022/01/20 03:16:48;;;;;;;0.40;0.30;;;2.90;99.90;;;;;;5088852;28;20477;-89
2022/01/20 03:19:16;;;;;;;0.30;0.10;;;2.90;99.90;;;;;;5105605;28;20439;-90
2022/01/20 03:21:45;;;;;;;0.30;0.10;;;2.90;99.90;;;;;;5107232;28;20447;-90
2022/01/20 03:24:12;;;;;;;0.30;0.10;;;2.90;99.90;;;;;;5111277;28;20413;-89
2022/01/20 03:26:40;;;;;;;0.30;0.10;;;2.90;99.90;;;;;;5109167;28;20438;-88
2022/01/20 03:29:09;;;;;;;0.30;0.10;;;2.90;99.90;;;;;;5107097;28;20471;-88
2022/01/20 03:31:37;;;;;;;0.30;0.10;;;2.90;99.90;;;;;;5096830;28;20450;-89
2022/01/20 03:34:04;;;;;;;0.30;0.10;;;2.90;99.90;;;;;;5112318;28;20460;-89
2022/01/20 03:36:31;;;;;;;0.30;0.20;;;3.00;99.90;;;;;;5113049;28;20473;-88
2022/01/20 03:38:58;;;;;;;0.30;0.10;;;3.00;99.90;;;;;;5112511;28;20691;-88
2022/01/20 03:41:25;;;;;;;0.30;0.20;;;3.00;99.90;;;;;;5110337;28;20459;-89
2022/01/20 03:43:52;;;;;;;0.30;0.10;;;2.90;99.90;;;;;;5113885;28;20427;-88
2022/01/20 03:46:20;;;;;;;0.30;0.10;;;3.00;99.90;;;;;;5110745;28;20439;-88
2022/01/20 03:48:52;;;;;;;0.30;0.20;;;3.00;99.90;;;;;;5092928;28;20493;-89
2022/01/20 03:51:21;;;;;;;0.30;0.20;;;3.00;99.90;;;;;;5095651;28;20446;-89
2022/01/20 03:53:50;;;;;;;0.30;0.10;;;3.00;99.90;;;;;;5098031;28;20451;-90
2022/01/20 03:56:17;;;;;;;0.30;0.10;;;3.00;99.90;;;;;;5098082;28;20492;-88
2022/01/20 03:58:44;;;;;;;2.43;0.50;;;3.00;99.90;;;;;;5097669;28;20490;-89
2022/01/20 04:01:12;;;;;;;0.30;0.10;;;2.90;99.90;;;;;;5097383;28;20443;-89
2022/01/20 04:03:40;;;;;;;0.30;0.10;;;2.90;99.90;;;;;;5091559;28;20439;-89
2022/01/20 04:06:07;;;;;;;0.30;0.20;;;2.80;99.90;;;;;;5087059;28;20458;-89
2022/01/20 04:08:36;;;;;;;0.30;0.10;;;2.80;99.90;;;;;;5081604;28;20876;-89
2022/01/20 04:11:06;;;;;;;0.30;0.10;;;2.70;99.90;;;;;;5076379;28;20449;-89
2022/01/20 04:13:33;;;;;;;0.30;0.10;;;2.60;99.90;;;;;;5084606;28;20451;-89
2022/01/20 04:16:02;;;;;;;0.30;0.10;;;2.50;99.90;;;;;;5086053;28;20925;-89
2022/01/20 04:18:30;;;;;;;0.30;0.10;;;2.50;99.90;;;;;;5093325;28;20797;-90
2022/01/20 04:20:58;;;;;;;0.30;0.10;;;2.50;99.90;;;;;;5093832;28;20442;-89
2022/01/20 04:23:25;;;;;;;0.30;0.10;;;2.40;99.90;;;;;;5091004;28;20512;-89
2022/01/20 04:25:52;;;;;;;0.40;0.20;;;2.40;99.90;;;;;;5093235;28;20451;-89
2022/01/20 04:28:19;;;;;;;0.30;0.10;;;2.30;99.90;;;;;;5093767;28;20489;-89
2022/01/20 04:30:46;;;;;;;0.30;0.10;;;2.30;99.90;;;;;;5089234;28;20811;-89
2022/01/20 04:33:13;;;;;;;0.30;0.10;;;2.30;99.90;;;;;;5092850;28;20906;-89
2022/01/20 04:35:40;;;;;;;0.30;0.10;;;2.30;99.90;;;;;;5093834;28;20524;-89
2022/01/20 04:38:09;;;;;;;0.30;0.10;;;2.30;99.90;;;;;;5090457;28;20856;-89
2022/01/20 04:40:40;;;;;;;0.30;0.10;;;2.20;99.90;;;;;;5090267;28;20478;-89
2022/01/20 04:43:07;;;;;;;0.30;0.10;;;2.20;99.90;;;;;;5092518;28;20468;-89
2022/01/20 04:45:40;;;;;;;0.30;0.10;;;2.20;99.90;;;;;;5090260;28;20525;-89
2022/01/20 04:48:20;;;;;;;0.30;0.20;;;2.10;99.90;;;;;;5091695;28;20487;-89
2022/01/20 04:59:13;;;;;;;0.30;0.10;;;1.70;99.90;;;;;;5108113;28;20463;-90
2022/01/20 05:01:45;;;;;;;0.30;0.10;;;1.60;99.90;;;;;;5109212;28;20442;-89
2022/01/20 05:04:12;;;;;;;0.30;0.23;;;1.60;99.90;;;;;;5100984;28;20205;-89
2022/01/20 05:06:41;;;;;;;0.30;0.10;;;1.60;99.90;;;;;;5099843;28;20486;-88
2022/01/20 05:09:11;;;;;;;0.30;0.10;;;1.60;99.90;;;;;;5084253;28;20734;-90
2022/01/20 05:11:43;;;;;;;0.30;0.10;;;1.60;99.90;;;;;;5086804;28;20725;-89
2022/01/20 05:14:10;;;;;;;0.30;0.10;;;1.60;99.90;;;;;;5087466;28;20434;-89
2022/01/20 05:16:37;;;;;;;0.30;0.10;;;1.60;99.90;;;;;;5087207;28;20959;-89
2022/01/20 05:19:04;;;;;;;0.30;0.10;;;1.60;99.90;;;;;;5093333;28;20452;-90
2022/01/20 05:21:31;;;;;;;0.30;0.10;;;1.60;99.90;;;;;;5091861;28;20519;-89
2022/01/20 05:23:58;;;;;;;0.30;0.10;;;1.50;99.90;;;;;;5090900;28;20447;-90
2022/01/20 05:26:27;;;;;;;0.40;0.30;;;1.50;99.90;;;;;;5090733;28;20458;-89
2022/01/20 05:28:54;;;;;;;0.30;0.10;;;1.60;99.90;;;;;;5090348;28;20801;-89
2022/01/20 05:31:21;;;;;;;0.30;0.10;;;1.60;99.90;;;;;;5090759;28;20274;-90
2022/01/20 05:33:48;;;;;;;0.30;0.10;;;1.60;99.90;;;;;;5090355;28;20964;-89
2022/01/20 05:36:15;;;;;;;0.30;0.10;;;1.60;99.90;;;;;;5090683;28;20189;-90
2022/01/20 05:38:42;;;;;;;0.30;0.10;;;1.60;99.90;;;;;;5086280;28;20975;-88
2022/01/20 05:41:09;;;;;;;0.30;0.10;;;1.60;99.90;;;;;;5087028;28;20541;-90
2022/01/20 05:43:38;;;;;;;0.30;0.10;;;1.70;99.90;;;;;;5087023;28;20462;-90
2022/01/20 05:46:05;;;;;;;0.30;0.10;;;1.70;99.90;;;;;;5086683;28;20192;-88
2022/01/20 05:48:35;;;;;;;0.30;0.10;;;1.70;99.90;;;;;;5090286;28;20481;-90
2022/01/20 05:51:02;;;;;;;0.30;0.10;;;1.70;99.90;;;;;;5091053;28;20211;-89
2022/01/20 05:53:29;;;;;;;0.30;0.10;;;1.70;99.90;;;;;;5091278;28;20503;-93
2022/01/20 05:55:56;;;;;;;0.30;0.10;;;1.80;99.90;;;;;;5072664;28;20466;-88
2022/01/20 05:58:23;;;;;;;0.30;0.10;;;1.80;99.90;;;;;;5071612;28;20957;-88
2022/01/20 06:00:52;;;;;;;0.30;0.10;;;1.80;99.90;;;;;;5075661;28;20471;-89
2022/01/20 06:03:37;;;;;;;0.30;0.10;;;1.90;99.90;;;;;;5092055;28;20444;-89
2022/01/20 06:06:05;;;;;;;0.30;0.10;;;1.90;99.90;;;;;;5074898;28;20444;-89
2022/01/20 06:08:32;;;;;;;0.30;0.10;;;1.90;99.90;;;;;;5071434;28;20486;-91
2022/01/20 06:11:00;;;;;;;0.30;0.10;;;1.90;99.90;;;;;;5072033;28;20450;-88
2022/01/20 06:13:27;;;;;;;0.30;0.10;;;2.00;99.90;;;;;;5071885;28;20844;-88
2022/01/20 06:15:56;;;;;;;0.30;0.10;;;2.00;99.90;;;;;;5071131;28;20467;-90
2022/01/20 06:18:23;;;;;;;0.40;0.37;;;2.00;99.90;;;;;;5071145;28;20201;-88
2022/01/20 06:20:50;;;;;;;0.40;0.20;;;2.00;99.90;;;;;;5088210;28;20932;-89
2022/01/20 06:23:19;;;;;;;0.30;0.10;;;2.00;99.90;;;;;;5090389;28;20466;-89
2022/01/20 06:25:47;;;;;;;0.30;0.10;;;2.00;99.90;;;;;;5091710;28;20442;-88
2022/01/20 06:28:14;;;;;;;0.30;0.10;;;2.00;99.90;;;;;;5087563;28;20460;-88
2022/01/20 06:30:41;;;;;;;0.30;0.10;;;2.00;99.90;;;;;;5071766;28;20225;-88
2022/01/20 06:33:09;;;;;;;0.30;0.10;;;1.90;99.90;;;;;;5089449;28;20432;-89
2022/01/20 06:35:37;;;;;;;0.30;0.10;;;1.90;99.90;;;;;;5095645;28;20440;-88
2022/01/20 06:38:05;;;;;;;0.30;0.10;;;1.90;99.90;;;;;;5092517;28;20451;-87
2022/01/20 06:40:32;;;;;;;0.30;0.10;;;1.80;99.90;;;;;;5089654;28;20524;-88
2022/01/20 06:42:59;;;;;;;0.30;0.10;;;1.80;99.90;;;;;;5073136;28;20863;-88
2022/01/20 06:45:26;;;;;;;0.30;0.13;;;1.80;99.90;;;;;;5077530;28;20500;-88
2022/01/20 06:47:53;;;;;;;0.30;0.20;;;1.80;99.90;;;;;;5091381;28;20977;-90
2022/01/20 06:50:22;;;;;;;0.30;0.10;;;1.80;99.90;;;;;;5090526;28;20555;-87
2022/01/20 06:52:49;;;;;;;0.30;0.10;;;1.80;99.90;;;;;;5090287;28;20592;-89
2022/01/20 06:55:16;;;;;;;0.30;0.10;;;1.80;99.90;;;;;;5088244;28;20780;-88
2022/01/20 06:57:43;;;;;;;0.30;0.10;;;1.80;99.90;;;;;;5089704;28;20466;-87
2022/01/20 07:00:13;;;;;;;0.30;0.10;;;1.70;99.90;;;;;;5088665;28;20450;-88
2022/01/20 07:02:40;;;;;;;0.30;0.10;;;1.70;99.90;;;;;;5089904;28;20608;-88
2022/01/20 07:05:10;;;;;;;0.30;0.10;;;1.70;99.90;;;;;;5090027;28;20464;-88
2022/01/20 07:07:38;;;;;;;0.30;0.10;;;1.70;99.90;;;;;;5089995;28;20340;-89
2022/01/20 07:10:07;;;;;;;0.30;0.10;;;1.70;99.90;;;;;;5090021;28;20223;-90
2022/01/20 07:12:34;;;;;;;0.30;0.10;;;1.70;99.90;;;;;;5090587;28;20249;-90
2022/01/20 07:15:01;;;;;;;0.30;0.10;;;1.70;99.90;;;;;;5090619;28;20975;-89
2022/01/20 07:17:28;;;;;;;0.30;0.10;;;1.70;99.90;;;;;;5073360;28;20466;-89
2022/01/20 07:19:55;;;;;;;0.30;0.10;;;1.70;99.90;;;;;;5084617;28;20443;-89
2022/01/20 07:22:22;;;;;;;0.30;0.10;;;1.80;99.90;;;;;;5090457;28;20935;-89
2022/01/20 07:24:51;;;;;;;0.30;0.10;;;1.80;99.90;;;;;;5073609;28;20467;-89
2022/01/20 07:27:18;;;;;;;0.30;0.10;;;1.80;99.90;;;;;;5089159;28;20771;-88
2022/01/20 07:29:45;;;;;;;0.30;0.10;;;1.80;99.90;;;;;;5091399;28;20507;-88
2022/01/20 07:32:12;;;;;;;0.30;0.10;;;1.80;99.90;;;;;;5089725;28;20465;-89
2022/01/20 07:34:39;;;;;;;0.30;0.10;;;1.80;99.90;;;;;;5089622;28;20908;-89
2022/01/20 07:37:06;;;;;;;0.30;0.10;;;1.80;99.90;;;;;;5087251;28;20199;-90
2022/01/20 07:39:33;;;;;;;0.30;0.10;;;1.80;99.90;;;;;;5089334;28;20207;-87
2022/01/20 07:42:02;;;;;;;0.30;0.20;;;1.80;99.90;;;;;;5086568;28;20211;-89
2022/01/20 07:44:29;;;;;;;0.30;0.10;;;1.70;99.90;;;;;;5070194;28;20257;-88
2022/01/20 07:46:57;;;;;;;0.30;0.10;;;1.70;99.90;;;;;;5080456;28;20610;-90
2022/01/20 07:49:24;;;;;;;0.30;0.10;;;1.70;99.90;;;;;;5092826;28;20230;-89
2022/01/20 07:51:51;;;;;;;0.30;0.10;;;1.70;99.90;;;;;;5094251;28;20233;-89
2022/01/20 07:54:18;;;;;;;0.30;0.10;;;1.70;99.90;;;;;;5083646;28;20204;-88
2022/01/20 07:56:45;;;;;;;0.30;0.10;;;1.80;99.90;;;;;;5072653;28;20577;-90
2022/01/20 07:59:13;;;;;;;0.30;0.20;;;1.80;99.90;;;;;;5074475;28;20249;-88
2022/01/20 08:01:40;;;;;;;0.30;0.10;;;1.80;99.90;;;;;;5073516;28;20200;-88
2022/01/20 08:04:07;;;;;;;0.30;0.10;;;1.80;99.90;;;;;;5089549;28;20713;-88
2022/01/20 08:06:34;;;;;;;0.30;0.10;;;1.80;99.90;;;;;;5095177;28;20596;-90
2022/01/20 08:09:01;;;;;;;0.30;0.10;;;1.80;99.90;;;;;;5101946;28;20243;-88
2022/01/20 08:11:28;;;;;;;0.30;0.10;;;1.80;99.90;;;;;;5095768;28;20200;-87
2022/01/20 08:13:56;;;;;;;0.30;0.10;;;1.70;99.90;;;;;;5095796;28;20192;-88
2022/01/20 08:16:24;;;;;;;0.30;0.10;;;1.70;99.90;;;;;;5084310;28;20210;-88
2022/01/20 08:18:53;;;;;;;0.30;0.10;;;1.70;99.90;;;;;;5077911;28;20206;-89
2022/01/20 08:21:20;;;;;;;0.30;0.10;;;1.70;99.90;;;;;;5094528;28;20901;-88
2022/01/20 08:23:47;;;;;;;0.30;0.20;;;1.70;99.90;;;;;;5094496;28;20265;-91
2022/01/20 08:26:14;;;;;;;0.30;0.10;;;1.70;99.90;;;;;;5095718;28;20213;-87
2022/01/20 08:28:42;;;;;;;0.30;0.10;;;1.70;99.90;;;;;;5093807;28;20288;-89
2022/01/20 08:31:09;;;;;;;0.30;0.10;;;1.70;99.90;;;;;;5081901;28;20315;-88
2022/01/20 08:33:37;;;;;;;1.98;1.90;;;1.70;99.90;;;;;;5072800;28;20445;-88
2022/01/20 08:36:05;;;;;;;0.30;0.10;;;1.80;99.90;;;;;;5073478;28;20201;-88
2022/01/20 08:38:32;;;;;;;0.30;0.10;;;1.80;99.90;;;;;;5072698;28;20258;-88
2022/01/20 08:40:59;;;;;;;0.30;0.10;;;1.80;99.90;;;;;;5072401;28;20231;-89
2022/01/20 08:43:26;;;;;;;0.30;0.10;;;1.70;99.90;;;;;;5087637;28;20276;-88
2022/01/20 08:45:53;;;;;;;0.30;0.10;;;1.70;99.90;;;;;;5092965;28;20492;-89
2022/01/20 08:48:20;;;;;;;0.30;0.10;;;1.70;99.90;;;;;;5075125;28;20825;-87
2022/01/20 08:50:49;;;;;;;0.30;0.10;;;1.80;99.90;;;;;;5078227;28;20264;-89
2022/01/20 08:53:16;;;;;;;0.30;0.10;;;1.70;99.90;;;;;;5080300;28;20977;-88
2022/01/20 08:55:43;;;;;;;0.40;0.30;;;1.80;99.90;;;;;;5072778;28;20241;-88
2022/01/20 08:58:10;;;;;;;0.30;0.10;;;1.70;99.90;;;;;;5075922;28;20224;-89
2022/01/20 09:00:37;;;;;;;0.30;0.10;;;1.70;99.90;;;;;;5092806;28;20513;-89
2022/01/20 09:03:05;;;;;;;0.30;0.10;;;1.80;99.90;;;;;;5092380;28;20199;-89
2022/01/20 09:05:32;;;;;;;0.30;0.10;;;1.80;99.90;;;;;;5091926;28;20201;-87
2022/01/20 09:08:02;;;;;;;0.30;0.10;;;1.80;99.90;;;;;;5092293;28;20497;-88
2022/01/20 09:10:36;;;;;;;0.30;0.10;;;1.80;99.90;;;;;;5092171;28;21167;-89
2022/01/20 09:15:50;;;;;;;0.30;0.10;;;1.80;99.90;;;;;;5091554;28;20458;-89
2022/01/20 09:18:19;;;;;;;0.30;0.10;;;1.80;99.90;;;;;;5092384;28;20519;-88
2022/01/20 09:20:46;;;;;;;0.30;0.10;;;1.90;99.90;;;;;;5083083;28;20822;-88
2022/01/20 09:23:14;;;;;;;4.33;1.03;;;2.00;99.90;;;;;;5071944;28;20442;-89
2022/01/20 09:25:42;;;;;;;0.50;0.30;;;2.10;99.90;;;;;;5072026;28;20447;-89
2022/01/20 09:28:09;;;;;;;0.30;0.10;;;2.10;99.90;;;;;;5072415;28;20490;-88
2022/01/20 09:30:39;;;;;;;0.30;0.10;;;2.10;99.90;;;;;;5071387;28;20217;-89
2022/01/20 09:33:13;;;;;;;0.30;0.10;;;2.20;99.90;;;;;;5072209;28;20487;-90
2022/01/20 09:35:42;;;;;;;0.40;0.20;;;2.30;99.90;;;;;;5080193;28;20283;-89
2022/01/20 09:38:11;;;;;;;0.30;0.10;;;2.40;99.90;;;;;;5087320;28;20471;-88
2022/01/20 09:40:40;;;;;;;1.63;1.37;;;2.40;99.90;;;;;;5085610;28;20712;-89
2022/01/20 09:43:10;;;;;;;0.30;0.10;;;2.30;99.90;;;;;;5095614;28;20450;-88
2022/01/20 09:45:38;;;;;;;0.30;0.10;;;2.30;99.90;;;;;;5096187;28;20446;-89
2022/01/20 09:48:06;;;;;;;0.30;0.10;;;2.50;99.90;;;;;;5091917;28;20225;-88
2022/01/20 09:50:33;;;;;;;0.30;0.10;;;2.60;99.90;;;;;;5104200;28;20235;-88
2022/01/20 09:53:01;;;;;;;0.30;0.10;;;2.70;99.90;;;;;;5094105;28;20439;-88
2022/01/20 09:55:30;;;;;;;0.30;0.10;;;2.70;99.90;;;;;;5092473;28;20844;-89
2022/01/20 09:57:58;;;;;;;0.30;0.10;;;2.70;99.90;;;;;;5091367;28;20238;-88
2022/01/20 10:00:26;;;;;;;0.30;0.10;;;2.70;99.90;;;;;;5091791;28;20487;-89
2022/01/20 10:03:00;;;;;;;0.30;0.10;;;2.60;99.90;;;;;;5091584;28;20446;-88
2022/01/20 10:05:33;;;;;;;0.30;0.10;;;2.60;99.90;;;;;;5090637;28;20203;-88
2022/01/20 10:08:03;;;;;;;0.45;0.45;;;2.60;99.90;;;;;;5091966;28;20193;-88
2022/01/20 10:10:46;;;;;;;0.30;0.10;;;2.70;99.90;;;;;;5072541;28;20225;-88
2022/01/20 10:13:16;;;;;;;0.30;0.10;;;2.80;99.90;;;;;;5070987;28;20209;-88
2022/01/20 10:15:54;;;;;;;0.98;0.45;;;2.90;99.90;;;;;;5076536;28;20458;-89
2022/01/20 10:18:21;;;;;;;0.30;0.10;;;3.00;99.90;;;;;;5090902;28;20215;-89
2022/01/20 10:20:54;;;;;;;0.30;0.10;;;3.00;99.90;;;;;;5090659;28;20511;-88
2022/01/20 10:23:37;;;;;;;0.30;0.20;;;2.90;99.90;;;;;;5089400;28;20469;-87
2022/01/20 10:26:13;;;;;;;0.30;0.10;;;2.80;99.90;;;;;;5090190;28;20499;-88
2022/01/20 10:28:57;;;;;;;0.30;0.10;;;3.00;99.90;;;;;;5089031;28;20443;-88
2022/01/20 10:31:36;;;;;;;0.40;0.20;;;3.20;99.90;;;;;;5090175;28;20535;-89
2022/01/20 10:34:04;;;;;;;0.30;0.10;;;3.40;99.90;;;;;;5090271;28;20516;-90
2022/01/20 10:36:37;;;;;;;0.30;0.10;;;3.50;99.90;;;;;;5090946;28;20507;-90
2022/01/20 10:39:05;;;;;;;0.30;0.20;;;3.40;99.90;;;;;;5090903;28;20940;-90
2022/01/20 10:41:34;;;;;;;0.30;0.20;;;3.30;99.90;;;;;;5080001;28;20464;-90
2022/01/20 10:44:08;;;;;;;0.30;0.10;;;3.30;99.90;;;;;;5087620;28;20891;-90
2022/01/20 10:46:50;;;;;;;0.30;0.10;;;3.60;99.90;;;;;;5090389;28;20454;-90
2022/01/20 10:49:19;;;;;;;0.30;0.10;;;3.70;99.90;;;;;;5091585;28;20787;-90
2022/01/20 10:52:01;;;;;;;0.30;0.10;;;3.80;99.90;;;;;;5090307;28;20485;-89
2022/01/20 10:54:40;;;;;;;0.30;0.10;;;3.60;99.90;;;;;;5089909;28;21051;-89
2022/01/20 10:57:08;;;;;;;0.30;0.10;;;3.60;99.90;;;;;;5091429;28;20474;-89
2022/01/20 10:59:51;;;;;;;0.30;0.10;;;3.60;99.90;;;;;;5090397;28;20442;-89
2022/01/20 11:02:20;;;;;;;0.30;0.10;;;3.60;99.90;;;;;;5075013;28;20505;-89
2022/01/20 11:04:48;;;;;;;0.30;0.10;;;3.70;99.90;;;;;;5070674;28;20945;-89
2022/01/20 11:07:15;;;;;;;0.30;0.10;;;3.90;99.90;;;;;;5069781;28;20977;-89
2022/01/20 11:09:45;;;;;;;0.30;0.10;;;3.90;99.90;;;;;;5069827;28;20796;-89
2022/01/20 11:12:13;;;;;;;0.30;0.20;;;3.90;99.90;;;;;;5070716;28;20594;-89
2022/01/20 11:14:43;;;;;;;0.30;0.10;;;3.90;99.90;;;;;;5074405;28;20487;-90
2022/01/20 11:17:18;;;;;;;0.30;0.10;;;3.80;99.90;;;;;;5090593;28;20439;-89
2022/01/20 11:19:45;;;;;;;0.30;0.10;;;3.80;99.90;;;;;;5111132;28;20570;-90
2022/01/20 11:22:14;;;;;;;0.40;0.27;;;3.70;99.90;;;;;;5113794;28;20858;-89
2022/01/20 11:24:42;;;;;;;0.30;0.10;;;3.70;99.90;;;;;;5111107;28;20508;-89
2022/01/20 11:27:12;;;;;;;0.50;0.40;;;3.70;99.90;;;;;;5106144;28;20457;-89
2022/01/20 11:29:44;;;;;;;0.50;0.40;;;3.70;99.90;;;;;;5098531;28;20512;-89
2022/01/20 11:32:24;;;;;;;0.30;0.10;;;3.60;99.90;;;;;;5082664;28;20475;-90
2022/01/20 11:35:03;;;;;;;0.30;0.10;;;3.50;99.90;;;;;;5081254;28;20431;-89
2022/01/20 11:37:34;;;;;;;0.30;0.10;;;3.50;99.90;;;;;;5084331;28;20434;-90
2022/01/20 11:40:15;;;;;;;0.30;0.10;;;3.40;99.90;;;;;;5088386;28;20447;-89
2022/01/20 11:42:43;;;;;;;0.30;0.10;;;3.40;99.90;;;;;;5087357;28;20450;-89
2022/01/20 11:45:31;;;;;;;0.30;0.10;;;3.30;99.90;;;;;;5090042;28;20503;-89
2022/01/20 11:47:59;;;;;;;0.30;0.10;;;3.30;99.90;;;;;;5083968;28;20459;-90
2022/01/20 11:50:26;;;;;;;0.30;0.10;;;3.30;99.90;;;;;;5086911;28;20478;-89
2022/01/20 11:52:53;;;;;;;0.30;0.10;;;3.30;99.90;;;;;;5089950;28;20500;-89
2022/01/20 11:55:20;;;;;;;0.53;0.30;;;3.40;99.90;;;;;;5089650;28;20447;-89
2022/01/20 11:57:48;;;;;;;0.30;0.10;;;3.40;99.90;;;;;;5089152;28;20482;-89
2022/01/20 12:00:22;;;;;;;0.30;0.13;;;3.40;99.90;;;;;;5086910;28;21286;-89
2022/01/20 12:02:52;;;;;;;0.30;0.20;;;3.50;99.90;;;;;;5089508;28;20805;-89
2022/01/20 12:05:26;;;;;;;0.30;0.10;;;3.60;99.90;;;;;;5089670;28;20438;-89
2022/01/20 12:08:04;;;;;;;0.30;0.10;;;3.60;99.90;;;;;;5089105;28;20458;-90
2022/01/20 12:10:31;;;;;;;0.30;0.10;;;3.60;99.90;;;;;;5088737;28;20540;-89
2022/01/20 12:13:06;;;;;;;0.30;0.10;;;3.60;99.90;;;;;;5089776;28;20447;-89
2022/01/20 12:15:33;;;;;;;0.30;0.10;;;3.50;99.90;;;;;;5089630;28;20779;-89
2022/01/20 12:18:02;;;;;;;0.30;0.20;;;3.50;99.90;;;;;;5080440;28;20554;-89
2022/01/20 12:20:29;;;;;;;0.30;0.20;;;3.50;99.90;;;;;;5088735;28;20446;-89
2022/01/20 12:22:56;;;;;;;0.30;0.20;;;3.40;99.90;;;;;;5088786;28;20446;-89
2022/01/20 12:25:26;;;;;;;0.30;0.10;;;3.40;99.90;;;;;;5088222;28;20507;-89
2022/01/20 12:28:01;;;;;;;0.30;0.10;;;3.40;99.90;;;;;;5088508;28;20518;-89
2022/01/20 12:30:28;;;;;;;0.30;0.10;;;3.40;99.90;;;;;;5087700;28;20450;-89
2022/01/20 12:32:57;;;;;;;0.30;0.10;;;3.30;99.90;;;;;;5087888;28;20483;-89
2022/01/20 12:35:34;;;;;;;0.30;0.10;;;3.40;99.90;;;;;;5091871;28;20442;-89
2022/01/20 12:38:01;;;;;;;0.30;0.10;;;3.40;99.90;;;;;;5091424;28;20438;-89
2022/01/20 12:40:28;;;;;;;0.30;0.10;;;3.40;99.90;;;;;;5092107;28;20447;-90
2022/01/20 12:42:55;;;;;;;0.77;0.60;;;3.40;99.90;;;;;;5089732;28;20511;-89
2022/01/20 12:48:14;;;;;;;0.30;0.10;;;3.30;99.90;;;;;;5089220;28;20552;-89
2022/01/20 12:50:53;;;;;;;0.30;0.10;;;3.30;99.90;;;;;;5092891;28;20446;-90
2022/01/20 12:53:30;;;;;;;0.30;0.20;;;3.30;99.90;;;;;;5101721;28;20447;-90
2022/01/20 12:55:57;;;;;;;0.30;0.10;;;3.40;99.90;;;;;;5116747;28;20508;-90
2022/01/20 12:58:24;;;;;;;0.30;0.10;;;3.40;99.90;;;;;;5114876;28;20496;-89
2022/01/20 13:00:59;;;;;;;0.30;0.10;;;3.40;99.90;;;;;;5111820;28;20508;-90
2022/01/20 13:03:37;;;;;;;0.47;0.47;;;3.30;99.90;;;;;;5096905;28;20461;-90
2022/01/20 13:06:08;;;;;;;0.30;0.20;;;3.30;99.90;;;;;;5083087;28;20466;-89
2022/01/20 13:08:39;;;;;;;0.30;0.10;;;3.30;99.90;;;;;;5082634;28;20565;-89
2022/01/20 13:11:08;;;;;;;0.30;0.10;;;3.40;99.90;;;;;;5089595;28;20505;-90
2022/01/20 13:13:36;;;;;;;0.30;0.20;;;3.40;99.90;;;;;;5093913;28;20443;-89
2022/01/20 13:16:13;;;;;;;0.30;0.10;;;3.40;99.90;;;;;;5089406;28;20477;-89
2022/01/20 13:18:41;;;;;;;0.30;0.10;;;3.50;99.90;;;;;;5091025;28;20443;-89
2022/01/20 13:21:09;;;;;;;0.30;0.10;;;3.50;99.90;;;;;;5091332;28;20451;-89
2022/01/20 13:23:58;;;;;;;0.30;0.10;;;3.60;99.90;;;;;;5090740;28;20471;-89
2022/01/20 13:26:26;;;;;;;0.30;0.10;;;3.60;99.90;;;;;;5091306;28;20465;-89
2022/01/20 13:29:01;;;;;;;0.30;0.10;;;3.60;99.90;;;;;;5089451;28;20849;-90
2022/01/20 13:31:29;;;;;;;0.30;0.10;;;3.60;99.90;;;;;;5091346;28;20862;-89
2022/01/20 13:34:00;;;;;;;0.30;0.10;;;3.60;99.90;;;;;;5091507;28;20455;-89
2022/01/20 13:36:39;;;;;;;0.30;0.10;;;3.60;99.90;;;;;;5092186;28;20451;-89
2022/01/20 13:39:06;;;;;;;0.30;0.10;;;3.60;99.90;;;;;;5091417;28;20465;-89
2022/01/20 13:41:33;;;;;;;0.30;0.10;;;3.60;99.90;;;;;;5091648;28;20450;-89
2022/01/20 13:47:00;;;;;;;0.30;0.10;;;3.50;99.90;;;;;;5090892;28;20450;-89
2022/01/20 13:49:27;;;;;;;0.30;0.10;;;3.50;99.90;;;;;;5078256;28;20459;-87
2022/01/20 13:52:02;;;;;;;0.30;0.17;;;3.40;99.90;;;;;;5079686;28;20548;-89
2022/01/20 13:54:39;;;;;;;0.30;0.10;;;3.40;99.90;;;;;;5089760;28;20482;-89
2022/01/20 13:57:07;;;;;;;0.30;0.10;;;3.40;99.90;;;;;;5089798;28;20533;-89
2022/01/20 13:59:34;;;;;;;0.30;0.10;;;3.40;99.90;;;;;;5089577;28;20439;-89
2022/01/20 14:02:01;;;;;;;0.30;0.10;;;3.40;99.90;;;;;;5091600;28;20447;-90